createdAt,value
2023-09-18T00:01:24.461Z,1.20
2023-09-18T00:03:52.479Z,0.90
2023-09-18T00:06:20.895Z,1.00
2023-09-18T00:08:49.630Z,1.10
2023-09-18T00:11:17.911Z,0.90
2023-09-18T00:13:47.386Z,1.00
2023-09-18T00:16:15.413Z,0.70
2023-09-18T00:18:43.460Z,0.87
2023-09-18T00:21:11.677Z,0.90
2023-09-18T00:23:39.764Z,1.10
2023-09-18T00:26:07.804Z,1.00
2023-09-18T00:28:35.833Z,1.00
2023-09-18T00:31:05.259Z,0.80
2023-09-18T00:33:34.103Z,0.97
2023-09-18T00:36:02.088Z,1.07
2023-09-18T00:38:30.175Z,1.13
2023-09-18T00:40:58.221Z,0.90
2023-09-18T00:43:26.247Z,0.83
2023-09-18T00:45:54.430Z,0.80
2023-09-18T00:48:23.853Z,0.63
2023-09-18T00:50:52.095Z,1.00
2023-09-18T00:53:21.518Z,0.93
2023-09-18T00:55:50.161Z,0.80
2023-09-18T00:58:18.298Z,1.20
2023-09-18T01:00:46.887Z,0.97
2023-09-18T01:03:15.019Z,0.83
2023-09-18T01:05:44.557Z,1.10
2023-09-18T01:08:12.871Z,1.13
2023-09-18T01:10:50.486Z,1.10
2023-09-18T01:13:24.081Z,2.40
2023-09-18T01:15:56.543Z,0.80
2023-09-18T01:18:24.661Z,0.87
2023-09-18T01:20:54.098Z,0.87
2023-09-18T01:23:23.576Z,1.10
2023-09-18T01:25:52.007Z,1.07
2023-09-18T01:28:19.996Z,0.90
2023-09-18T01:30:48.009Z,1.50
2023-09-18T01:33:16.465Z,1.20
2023-09-18T01:35:47.345Z,2.13
2023-09-18T01:38:15.451Z,1.40
2023-09-18T01:40:45.403Z,1.70
2023-09-18T01:43:13.948Z,1.70
2023-09-18T01:45:42.169Z,1.80
2023-09-18T01:48:10.246Z,1.93
2023-09-18T01:50:41.503Z,1.80
2023-09-18T01:53:10.254Z,2.03
2023-09-18T01:55:38.273Z,2.00
2023-09-18T01:58:07.677Z,1.83
2023-09-18T02:00:36.384Z,2.40
2023-09-18T02:03:19.752Z,1.53
2023-09-18T02:05:53.918Z,1.77
2023-09-18T02:08:22.139Z,2.80
2023-09-18T02:10:50.187Z,1.80
2023-09-18T02:13:20.147Z,1.60
2023-09-18T02:15:48.409Z,2.20
2023-09-18T02:18:17.161Z,1.77
2023-09-18T02:20:45.635Z,2.83
2023-09-18T02:23:13.628Z,2.60
2023-09-18T02:25:41.804Z,2.90
2023-09-18T02:28:10.020Z,2.67
2023-09-18T02:30:39.890Z,3.20
2023-09-18T02:33:07.978Z,3.20
2023-09-18T02:35:36.154Z,2.90
2023-09-18T02:38:04.536Z,2.70
2023-09-18T02:40:32.586Z,1.73
2023-09-18T02:43:00.579Z,2.50
2023-09-18T02:45:28.566Z,1.90
2023-09-18T02:47:58.128Z,2.00
2023-09-18T02:50:26.227Z,2.10
2023-09-18T02:52:54.282Z,2.00
2023-09-18T02:55:22.393Z,2.20
2023-09-18T02:57:50.480Z,2.40
2023-09-18T03:00:29.419Z,2.57
2023-09-18T03:03:07.701Z,2.43
2023-09-18T03:05:35.816Z,2.60
2023-09-18T03:08:03.948Z,2.60
2023-09-18T03:10:35.167Z,2.50
2023-09-18T03:13:03.483Z,2.67
2023-09-18T03:15:31.669Z,2.40
2023-09-18T03:18:00.140Z,1.80
2023-09-18T03:20:30.114Z,1.83
2023-09-18T03:22:58.932Z,2.03
2023-09-18T03:25:27.382Z,1.97
2023-09-18T03:27:55.825Z,1.90
2023-09-18T03:30:24.801Z,1.70
2023-09-18T03:32:53.422Z,1.47
2023-09-18T03:35:21.695Z,1.70
2023-09-18T03:37:51.518Z,1.57
2023-09-18T03:40:20.341Z,1.40
2023-09-18T03:42:48.802Z,1.60
2023-09-18T03:45:16.888Z,1.47
2023-09-18T03:47:44.937Z,1.43
2023-09-18T03:50:13.322Z,1.40
2023-09-18T03:52:41.759Z,2.10
2023-09-18T03:55:11.397Z,2.00
2023-09-18T03:57:39.394Z,1.77
2023-09-18T04:00:08.614Z,1.80
2023-09-18T04:02:36.901Z,2.00
2023-09-18T04:05:06.167Z,1.67
2023-09-18T04:07:34.175Z,1.33
2023-09-18T04:10:02.233Z,1.80
2023-09-18T04:12:31.934Z,2.00
2023-09-18T04:14:59.912Z,2.17
2023-09-18T04:17:28.004Z,1.73
2023-09-18T04:19:56.326Z,2.17
2023-09-18T04:22:24.285Z,2.03
2023-09-18T04:24:52.327Z,2.07
2023-09-18T04:27:20.294Z,2.40
2023-09-18T04:29:49.669Z,2.20
2023-09-18T04:32:17.744Z,3.10
2023-09-18T04:34:47.169Z,2.50
2023-09-18T04:37:15.741Z,2.87
2023-09-18T04:39:43.709Z,2.63
2023-09-18T04:42:11.733Z,2.20
2023-09-18T04:44:39.813Z,2.57
2023-09-18T04:47:09.259Z,2.67
2023-09-18T04:49:37.286Z,2.63
2023-09-18T04:52:06.544Z,2.70
2023-09-18T04:54:34.690Z,2.80
2023-09-18T04:57:02.675Z,2.23
2023-09-18T04:59:31.211Z,4.27
2023-09-18T05:01:59.250Z,2.67
2023-09-18T05:04:28.801Z,2.87
2023-09-18T05:06:57.795Z,2.57
2023-09-18T05:09:25.771Z,2.60
2023-09-18T05:11:53.793Z,2.13
2023-09-18T05:14:21.811Z,3.17
2023-09-18T05:16:49.828Z,2.60
2023-09-18T05:19:17.845Z,2.50
2023-09-18T05:21:47.838Z,2.40
2023-09-18T05:24:15.979Z,1.83
2023-09-18T05:26:44.643Z,2.10
2023-09-18T05:29:12.988Z,2.10
2023-09-18T05:31:41.015Z,1.77
2023-09-18T05:34:08.987Z,1.90
2023-09-18T05:36:37.025Z,2.10
2023-09-18T05:39:08.286Z,1.83
2023-09-18T05:41:36.271Z,3.03
2023-09-18T05:44:06.221Z,1.97
2023-09-18T05:46:34.268Z,1.73
2023-09-18T05:49:02.301Z,1.70
2023-09-18T05:51:30.337Z,1.60
2023-09-18T05:53:58.307Z,1.90
2023-09-18T05:56:27.717Z,2.07
2023-09-18T05:58:56.633Z,2.20
2023-09-18T06:01:24.804Z,1.70
2023-09-18T06:03:53.018Z,2.20
2023-09-18T06:06:21.165Z,2.30
2023-09-18T06:08:49.263Z,2.20
2023-09-18T06:11:17.319Z,2.10
2023-09-18T06:13:46.737Z,1.90
2023-09-18T06:16:14.777Z,2.23
2023-09-18T06:18:42.994Z,2.10
2023-09-18T06:21:11.045Z,2.00
2023-09-18T06:23:39.112Z,1.83
2023-09-18T06:26:07.121Z,2.13
2023-09-18T06:28:35.142Z,2.20
2023-09-18T06:31:04.705Z,1.70
2023-09-18T06:33:32.763Z,2.00
2023-09-18T06:36:00.936Z,1.80
2023-09-18T06:38:28.985Z,1.83
2023-09-18T06:40:57.535Z,2.00
2023-09-18T06:43:25.572Z,1.80
2023-09-18T06:45:53.629Z,1.60
2023-09-18T06:48:23.130Z,2.07
2023-09-18T06:50:51.188Z,1.63
2023-09-18T06:53:19.268Z,2.23
2023-09-18T06:55:47.297Z,2.10
2023-09-18T06:58:15.309Z,2.33
2023-09-18T07:00:43.941Z,2.80
2023-09-18T07:03:12.890Z,1.97
2023-09-18T07:05:43.775Z,2.10
2023-09-18T07:08:13.321Z,2.27
2023-09-18T07:10:43.001Z,2.00
2023-09-18T07:13:10.983Z,1.63
2023-09-18T07:15:39.002Z,1.70
2023-09-18T07:18:07.115Z,1.50
2023-09-18T07:20:35.348Z,1.63
2023-09-18T07:23:04.886Z,1.47
2023-09-18T07:25:32.914Z,1.47
2023-09-18T07:28:00.980Z,1.70
2023-09-18T07:30:30.267Z,1.60
2023-09-18T07:32:59.406Z,1.70
2023-09-18T07:35:27.455Z,2.00
2023-09-18T07:37:55.553Z,1.57
2023-09-18T07:40:24.959Z,1.93
2023-09-18T07:42:52.925Z,1.40
2023-09-18T07:45:20.981Z,2.93
2023-09-18T07:47:49.054Z,2.00
2023-09-18T07:50:19.764Z,1.83
2023-09-18T07:52:47.993Z,1.97
2023-09-18T07:55:16.788Z,1.70
2023-09-18T07:57:46.988Z,1.93
2023-09-18T08:00:17.033Z,2.10
2023-09-18T08:02:45.643Z,1.80
2023-09-18T08:05:13.746Z,1.77
2023-09-18T08:07:41.804Z,1.90
2023-09-18T08:10:10.562Z,2.33
2023-09-18T08:12:41.390Z,1.50
2023-09-18T08:15:11.511Z,1.80
2023-09-18T08:17:39.656Z,1.70
2023-09-18T08:20:14.082Z,1.47
2023-09-18T08:22:42.254Z,1.77
2023-09-18T08:25:11.771Z,1.37
2023-09-18T08:27:43.492Z,1.53
2023-09-18T08:30:13.791Z,1.70
2023-09-18T08:32:41.955Z,1.87
2023-09-18T08:35:10.860Z,1.20
2023-09-18T08:37:39.014Z,1.13
2023-09-18T08:40:11.197Z,1.60
2023-09-18T08:42:42.423Z,1.70
2023-09-18T08:45:12.175Z,1.83
2023-09-18T08:47:42.595Z,1.60
2023-09-18T08:50:11.483Z,1.83
2023-09-18T08:52:40.020Z,1.43
2023-09-18T08:55:10.711Z,1.83
2023-09-18T08:57:39.051Z,1.90
2023-09-18T09:00:08.948Z,1.50
2023-09-18T09:02:37.853Z,1.87
2023-09-18T09:05:08.024Z,2.20
2023-09-18T09:07:36.132Z,1.90
2023-09-18T09:10:04.493Z,1.60
2023-09-18T09:12:54.832Z,1.50
2023-09-18T09:15:23.202Z,1.70
2023-09-18T09:17:51.620Z,1.70
2023-09-18T09:20:21.129Z,1.60
2023-09-18T09:22:49.149Z,1.73
2023-09-18T09:25:27.461Z,1.80
2023-09-18T09:27:55.984Z,2.33
2023-09-18T09:30:24.829Z,1.67
2023-09-18T09:32:53.532Z,2.10
2023-09-18T09:35:24.221Z,2.60
2023-09-18T09:37:53.145Z,4.47
2023-09-18T09:40:21.911Z,2.03
2023-09-18T09:42:50.178Z,1.80
2023-09-18T09:45:18.463Z,2.00
2023-09-18T09:47:46.694Z,1.80
2023-09-18T09:50:17.341Z,2.07
2023-09-18T09:52:49.667Z,2.33
2023-09-18T09:55:21.987Z,2.17
2023-09-18T09:57:50.329Z,1.93
2023-09-18T10:00:28.086Z,2.70
2023-09-18T10:02:58.730Z,2.40
2023-09-18T10:05:30.292Z,2.77
2023-09-18T10:08:04.497Z,2.30
2023-09-18T10:10:34.658Z,2.30
2023-09-18T10:13:05.933Z,2.33
2023-09-18T10:15:39.936Z,2.50
2023-09-18T10:18:10.324Z,2.90
2023-09-18T10:20:39.951Z,2.70
2023-09-18T10:23:10.885Z,3.13
2023-09-18T10:25:39.600Z,2.90
2023-09-18T10:28:08.838Z,5.30
2023-09-18T10:30:38.482Z,3.63
2023-09-18T10:33:08.949Z,3.63
2023-09-18T10:35:37.230Z,3.10
2023-09-18T10:38:08.058Z,3.27
2023-09-18T10:40:38.554Z,3.17
2023-09-18T10:43:10.549Z,3.37
2023-09-18T10:45:38.739Z,2.97
2023-09-18T10:48:09.799Z,3.20
2023-09-18T10:50:38.273Z,2.80
2023-09-18T10:53:06.310Z,2.77
2023-09-18T10:55:35.190Z,2.97
2023-09-18T10:58:04.945Z,2.87
2023-09-18T11:00:37.769Z,3.27
2023-09-18T11:03:13.048Z,3.03
2023-09-18T11:05:41.283Z,3.00
2023-09-18T11:08:28.849Z,3.13
2023-09-18T11:11:10.917Z,2.93
2023-09-18T11:13:41.553Z,2.77
2023-09-18T11:16:16.591Z,3.43
2023-09-18T11:18:44.829Z,3.43
2023-09-18T11:21:13.354Z,3.67
2023-09-18T11:23:44.217Z,3.53
2023-09-18T11:26:12.827Z,4.60
2023-09-18T11:28:44.154Z,4.40
2023-09-18T11:31:12.892Z,4.70
2023-09-18T11:33:41.481Z,4.13
2023-09-18T11:36:13.353Z,4.47
2023-09-18T11:38:58.049Z,7.13
2023-09-18T11:41:27.636Z,5.13
2023-09-18T11:44:17.837Z,4.63
2023-09-18T11:46:50.050Z,4.17
2023-09-18T11:49:23.192Z,4.00
2023-09-18T11:51:52.533Z,2.93
2023-09-18T11:54:20.673Z,2.87
2023-09-18T11:56:48.701Z,3.47
2023-09-18T11:59:18.536Z,3.40
2023-09-18T12:02:02.649Z,2.90
2023-09-18T12:04:31.060Z,1.97
2023-09-18T12:07:01.318Z,1.80
2023-09-18T12:09:29.934Z,1.40
2023-09-18T12:11:58.599Z,1.30
2023-09-18T12:14:26.714Z,1.40
2023-09-18T12:16:56.892Z,1.30
2023-09-18T12:19:25.129Z,1.17
2023-09-18T12:21:53.184Z,1.50
2023-09-18T12:24:23.299Z,1.50
2023-09-18T12:26:51.851Z,1.43
2023-09-18T12:29:19.996Z,1.33
2023-09-18T12:31:48.743Z,1.20
2023-09-18T12:34:19.078Z,1.27
2023-09-18T12:36:48.453Z,1.37
2023-09-18T12:39:17.382Z,1.30
2023-09-18T12:41:46.406Z,1.63
2023-09-18T12:44:15.884Z,1.33
2023-09-18T12:46:43.962Z,1.30
2023-09-18T12:49:20.632Z,1.13
2023-09-18T12:51:58.285Z,1.60
2023-09-18T12:54:39.656Z,1.77
2023-09-18T12:57:08.210Z,1.70
2023-09-18T12:59:37.030Z,1.90
2023-09-18T13:02:06.127Z,1.40
2023-09-18T13:04:41.554Z,1.43
2023-09-18T13:07:12.141Z,1.73
2023-09-18T13:09:40.468Z,1.80
2023-09-18T13:12:09.323Z,1.70
2023-09-18T13:14:58.449Z,2.60
2023-09-18T13:17:26.834Z,2.20
2023-09-18T13:19:56.293Z,1.53
2023-09-18T13:22:26.040Z,1.50
2023-09-18T13:24:58.013Z,1.53
2023-09-18T13:27:27.045Z,1.53
2023-09-18T13:29:55.626Z,1.53
2023-09-18T13:32:23.919Z,1.40
2023-09-18T13:34:51.950Z,1.30
2023-09-18T13:37:22.250Z,1.20
2023-09-18T13:39:50.225Z,1.30
2023-09-18T13:42:18.153Z,1.50
2023-09-18T13:44:48.352Z,1.73
2023-09-18T13:47:16.476Z,1.00
2023-09-18T13:49:44.497Z,1.17
2023-09-18T13:52:12.500Z,1.40
2023-09-18T13:54:42.062Z,1.60
2023-09-18T13:57:10.066Z,1.57
2023-09-18T13:59:39.147Z,1.20
2023-09-18T14:02:07.068Z,1.10
2023-09-18T14:04:35.061Z,1.53
2023-09-18T14:07:04.523Z,1.50
2023-09-18T14:09:32.477Z,1.43
2023-09-18T14:12:01.870Z,1.40
2023-09-18T14:14:29.858Z,1.50
2023-09-18T14:16:58.616Z,3.07
2023-09-18T14:19:27.017Z,1.40
2023-09-18T14:21:55.016Z,1.27
2023-09-18T14:24:25.757Z,1.30
2023-09-18T14:26:54.035Z,1.60
2023-09-18T14:29:23.614Z,1.50
2023-09-18T14:31:51.853Z,1.60
2023-09-18T14:34:19.867Z,1.60
2023-09-18T14:36:49.678Z,1.40
2023-09-18T14:39:17.851Z,1.30
2023-09-18T14:41:45.890Z,1.50
2023-09-18T14:44:13.995Z,1.40
2023-09-18T14:46:44.545Z,1.50
2023-09-18T14:49:12.567Z,1.63
2023-09-18T14:51:40.568Z,1.37
2023-09-18T14:54:09.411Z,1.23
2023-09-18T14:56:38.040Z,1.30
2023-09-18T14:59:06.268Z,1.40
2023-09-18T15:01:34.329Z,1.40
2023-09-18T15:04:04.450Z,1.43
2023-09-18T15:06:32.491Z,1.30
2023-09-18T15:09:00.583Z,1.20
2023-09-18T15:11:28.757Z,1.57
2023-09-18T15:13:56.870Z,1.33
2023-09-18T15:16:24.854Z,1.20
2023-09-18T15:18:58.326Z,1.60
2023-09-18T15:21:28.015Z,1.53
2023-09-18T15:23:56.102Z,1.63
2023-09-18T15:26:24.498Z,1.50
2023-09-18T15:28:52.502Z,1.90
2023-09-18T15:31:20.826Z,1.73
2023-09-18T15:33:48.971Z,1.47
2023-09-18T15:36:17.013Z,1.87
2023-09-18T15:38:46.405Z,1.60
2023-09-18T15:41:15.750Z,1.43
2023-09-18T15:43:43.772Z,1.33
2023-09-18T15:46:11.751Z,1.60
2023-09-18T15:48:39.782Z,1.37
2023-09-18T15:51:07.854Z,1.90
2023-09-18T15:53:35.905Z,1.10
2023-09-18T15:56:05.380Z,1.47
2023-09-18T15:58:33.379Z,1.30
2023-09-18T16:03:48.352Z,1.77
2023-09-18T16:06:18.185Z,1.90
2023-09-18T16:08:46.219Z,1.53
2023-09-18T16:11:16.678Z,1.67
2023-09-18T16:13:44.648Z,1.90
2023-09-18T16:16:12.690Z,2.23
2023-09-18T16:18:41.372Z,2.30
2023-09-18T16:21:10.004Z,2.10
2023-09-18T16:23:38.075Z,2.37
2023-09-18T16:26:06.404Z,2.57
2023-09-18T16:28:35.940Z,2.20
2023-09-18T16:31:09.688Z,1.90
2023-09-18T16:33:38.053Z,2.07
2023-09-18T16:36:06.727Z,2.20
2023-09-18T16:38:41.819Z,2.13
2023-09-18T16:41:10.022Z,2.20
2023-09-18T16:43:39.971Z,2.03
2023-09-18T16:46:08.397Z,2.03
2023-09-18T16:48:36.750Z,1.90
2023-09-18T16:51:05.568Z,3.70
2023-09-18T16:53:33.657Z,2.30
2023-09-18T16:56:01.642Z,2.57
2023-09-18T16:58:29.617Z,2.60
2023-09-18T17:00:59.590Z,2.07
2023-09-18T17:03:27.735Z,2.07
2023-09-18T17:05:57.263Z,2.57
2023-09-18T17:08:25.407Z,2.40
2023-09-18T17:10:53.491Z,1.87
2023-09-18T17:13:22.109Z,2.20
2023-09-18T17:15:51.156Z,2.30
2023-09-18T17:18:20.679Z,2.00
2023-09-18T17:20:49.750Z,2.30
2023-09-18T17:23:17.790Z,2.30
2023-09-18T17:25:45.842Z,2.30
2023-09-18T17:28:16.029Z,2.30
2023-09-18T17:30:44.015Z,2.23
2023-09-18T17:33:13.754Z,2.20
2023-09-18T17:35:46.449Z,2.10
2023-09-18T17:38:15.368Z,2.20
2023-09-18T17:40:43.334Z,2.67
2023-09-18T17:43:11.346Z,2.40
2023-09-18T17:45:40.194Z,2.77
2023-09-18T17:48:09.689Z,2.23
2023-09-18T17:50:37.748Z,2.33
2023-09-18T17:53:07.298Z,2.30
2023-09-18T17:55:35.263Z,2.10
2023-09-18T17:58:03.360Z,2.13
2023-09-18T18:00:31.352Z,2.33
2023-09-18T18:02:59.649Z,2.20
2023-09-18T18:05:30.087Z,2.50
2023-09-18T18:07:58.542Z,2.23
2023-09-18T18:10:27.954Z,3.10
2023-09-18T18:12:56.841Z,2.30
2023-09-18T18:15:24.777Z,2.87
2023-09-18T18:17:52.787Z,2.60
2023-09-18T18:20:22.571Z,2.47
2023-09-18T18:22:52.189Z,2.70
2023-09-18T18:25:20.242Z,2.90
2023-09-18T18:27:49.618Z,4.13
2023-09-18T18:30:18.210Z,3.00
2023-09-18T18:32:46.392Z,2.83
2023-09-18T18:35:18.408Z,2.90
2023-09-18T18:37:47.405Z,2.50
2023-09-18T18:40:16.346Z,2.50
2023-09-18T18:42:44.348Z,2.47
2023-09-18T18:45:14.277Z,2.40
2023-09-18T18:47:42.316Z,2.80
2023-09-18T18:50:11.484Z,2.47
2023-09-18T18:52:39.746Z,2.70
2023-09-18T18:55:09.161Z,3.10
2023-09-18T18:57:37.671Z,2.83
2023-09-18T19:00:12.656Z,2.27
2023-09-18T19:02:44.206Z,2.83
2023-09-18T19:05:13.848Z,2.87
2023-09-18T19:07:41.893Z,2.87
2023-09-18T19:10:10.691Z,2.67
2023-09-18T19:12:42.907Z,2.83
2023-09-18T19:15:11.417Z,3.13
2023-09-18T19:17:39.488Z,3.17
2023-09-18T19:20:12.145Z,3.03
2023-09-18T19:22:39.269Z,2.90
2023-09-18T19:25:07.959Z,3.10
2023-09-18T19:27:38.144Z,3.53
2023-09-18T19:30:08.362Z,3.40
2023-09-18T19:32:36.759Z,3.87
2023-09-18T19:35:05.268Z,3.40
2023-09-18T19:37:34.790Z,3.50
2023-09-18T19:40:03.891Z,2.97
2023-09-18T19:42:31.870Z,3.80
2023-09-18T19:45:00.363Z,3.20
2023-09-18T19:47:29.041Z,3.07
2023-09-18T19:49:57.469Z,3.30
2023-09-18T19:52:25.525Z,3.27
2023-09-18T19:54:55.025Z,3.27
2023-09-18T19:57:23.043Z,3.90
2023-09-18T19:59:52.376Z,4.03
2023-09-18T20:02:20.549Z,3.40
2023-09-18T20:04:48.582Z,3.43
2023-09-18T20:07:16.502Z,3.07
2023-09-18T20:09:44.581Z,3.60
2023-09-18T20:12:14.184Z,3.63
2023-09-18T20:14:43.320Z,3.40
2023-09-18T20:17:11.814Z,3.87
2023-09-18T20:19:39.838Z,3.60
2023-09-18T20:22:08.062Z,4.00
2023-09-18T20:24:36.266Z,4.00
2023-09-18T20:27:04.638Z,4.10
2023-09-18T20:29:34.713Z,4.27
2023-09-18T20:32:02.928Z,3.87
2023-09-18T20:34:30.966Z,3.90
2023-09-18T20:36:59.324Z,3.90
2023-09-18T20:39:27.433Z,4.20
2023-09-18T20:41:57.594Z,4.07
2023-09-18T20:44:25.685Z,3.73
2023-09-18T20:46:55.092Z,3.87
2023-09-18T20:49:23.014Z,3.80
2023-09-18T20:51:51.062Z,4.10
2023-09-18T20:54:19.272Z,4.20
2023-09-18T20:56:47.587Z,4.53
2023-09-18T20:59:18.201Z,4.20
2023-09-18T21:01:46.453Z,4.03
2023-09-18T21:04:16.027Z,4.23
2023-09-18T21:06:44.781Z,4.57
2023-09-18T21:09:14.704Z,4.30
2023-09-18T21:11:43.221Z,4.00
2023-09-18T21:14:11.522Z,4.30
2023-09-18T21:16:39.488Z,4.10
2023-09-18T21:19:07.483Z,4.00
2023-09-18T21:21:36.951Z,4.43
2023-09-18T21:24:05.172Z,3.93
2023-09-18T21:26:33.213Z,4.67
2023-09-18T21:29:01.194Z,4.40
2023-09-18T21:31:29.734Z,4.40
2023-09-18T21:33:58.141Z,5.10
2023-09-18T21:36:26.106Z,4.73
2023-09-18T21:38:55.492Z,4.50
2023-09-18T21:41:24.253Z,4.43
2023-09-18T21:43:52.211Z,5.00
2023-09-18T21:46:20.655Z,3.53
2023-09-18T21:48:48.720Z,4.20
2023-09-18T21:51:19.887Z,3.97
2023-09-18T21:53:48.421Z,4.23
2023-09-18T21:56:18.009Z,4.53
2023-09-18T21:58:45.939Z,3.87
2023-09-18T22:01:14.171Z,4.37
2023-09-18T22:03:42.610Z,4.27
2023-09-18T22:06:10.818Z,4.83
2023-09-18T22:08:39.438Z,6.77
2023-09-18T22:11:08.360Z,6.03
2023-09-18T22:13:38.092Z,5.70
2023-09-18T22:16:06.662Z,4.60
2023-09-18T22:18:34.939Z,4.07
2023-09-18T22:21:03.369Z,3.87
2023-09-18T22:23:31.410Z,4.07
2023-09-18T22:26:00.133Z,3.80
2023-09-18T22:28:28.517Z,4.00
2023-09-18T22:30:58.373Z,4.07
2023-09-18T22:33:26.607Z,4.40
2023-09-18T22:35:55.091Z,4.50
2023-09-18T22:38:27.919Z,4.37
2023-09-18T22:40:57.836Z,4.40
2023-09-18T22:43:44.365Z,4.40
2023-09-18T22:46:33.976Z,4.30
2023-09-18T22:49:22.277Z,4.33
2023-09-18T22:52:09.049Z,3.93
2023-09-18T22:54:48.190Z,3.13
2023-09-18T22:57:16.341Z,3.80
2023-09-18T22:59:44.468Z,3.60
2023-09-18T23:02:12.666Z,3.30
2023-09-18T23:04:40.790Z,4.00
2023-09-18T23:07:08.820Z,3.20
2023-09-18T23:09:36.786Z,3.63
2023-09-18T23:12:07.414Z,3.20
2023-09-18T23:14:35.397Z,3.33
2023-09-18T23:17:07.506Z,3.60
2023-09-18T23:19:37.201Z,3.50
2023-09-18T23:22:05.397Z,3.60
2023-09-18T23:24:33.746Z,2.80
2023-09-18T23:27:02.212Z,3.03
2023-09-18T23:29:32.249Z,2.50
2023-09-18T23:32:00.340Z,3.10
2023-09-18T23:34:28.920Z,2.70
2023-09-18T23:36:58.359Z,2.80
2023-09-18T23:39:26.502Z,2.90
2023-09-18T23:41:55.338Z,2.73
2023-09-18T23:44:23.502Z,2.60
2023-09-18T23:46:53.935Z,2.60
2023-09-18T23:49:23.805Z,2.77
2023-09-18T23:51:52.396Z,2.77
2023-09-18T23:54:21.704Z,2.60
2023-09-18T23:56:50.914Z,2.10
2023-09-18T23:59:18.907Z,2.20
